Airfield :
LOGIN :

Register | Disclaimer

   EN    FR    IT 

 










Legend :    VFR   Marginal VFR   IFR   Intensive IFR   Very Intensive IFR
Visi :
Ceiling :
>= 8 km
>= 3000ft
5 to 8 km
1000 to 3000 ft
1500m to 5 km
500 to 1000 ft
800 to 1500m
200 to 500 ft
< 800m
< 200 ft
Symbols :   Thunderstorms  Fog  Heavy snow  Heavy precipitations  Wind > 20 kt
SIGMETs :     Misc.  Thunderstorms  Icing  Turbulence  Mountain Waves  Volcanic Ashes






- Airport Elevation : 100 ft


EBDT - Schaffen

CURRENT METAR :
  • 021934Z AUTO VRB01KT 0600 NCD 16/11 Q1015 RED

EXPIRED METARs :
  • 021925Z AUTO VRB02KT 0550 NCD 16/11 Q1014 RED
  • 021855Z AUTO VRB02KT 9999 NCD 17/11 Q1014 BLU
  • 021825Z AUTO 36003KT 9999 FEW034/// 17/12 Q1015 BLU
  • 021755Z AUTO 36003KT 9999 NCD 18/12 Q1014 BLU
  • 021725Z AUTO VRB02KT 9999 NCD 18/11 Q1014 BLU
  • 021655Z AUTO 01005KT 9999 NCD 19/12 Q1014 BLU

Expired Forecast.



MET'MAP, your aeronautical weather chart ! - Copyright ORBIFLY December 2007 - Disclaimer

ORBIFLY MET'MAP TEAM :

Programming & Development : Alexandra Zaïnal
Concept & original design : Baudouin d'Aumeries
Assistance for programming : Marc-Olivier Méhu
Technical & hardware support : Manuel Goepfert

Contact : metmap@orbifly.com




SOURCES & CREDITS :

   NOAA